sensor_id;sensor_type;location;lat;lon;timestamp;P1;durP1;ratioP1;P2;durP2;ratioP2
52440;SDS011;39611;46.062;8.950;2022-10-30T00:00:38;2.90;;;0.75;;
52440;SDS011;39611;46.062;8.950;2022-10-30T00:03:05;2.85;;;0.70;;
52440;SDS011;39611;46.062;8.950;2022-10-30T00:05:35;1.77;;;1.15;;
52440;SDS011;39611;46.062;8.950;2022-10-30T00:08:01;2.47;;;0.90;;
52440;SDS011;39611;46.062;8.950;2022-10-30T00:10:28;2.50;;;0.73;;
52440;SDS011;39611;46.062;8.950;2022-10-30T00:12:55;3.20;;;0.90;;
52440;SDS011;39611;46.062;8.950;2022-10-30T00:15:21;2.38;;;0.82;;
52440;SDS011;39611;46.062;8.950;2022-10-30T00:17:48;3.10;;;0.50;;
52440;SDS011;39611;46.062;8.950;2022-10-30T00:20:15;7.57;;;0.90;;
52440;SDS011;39611;46.062;8.950;2022-10-30T00:22:41;2.33;;;0.70;;
52440;SDS011;39611;46.062;8.950;2022-10-30T00:25:08;2.35;;;0.50;;
52440;SDS011;39611;46.062;8.950;2022-10-30T00:27:35;1.02;;;0.45;;
52440;SDS011;39611;46.062;8.950;2022-10-30T00:30:01;1.30;;;0.40;;
52440;SDS011;39611;46.062;8.950;2022-10-30T00:32:28;3.33;;;0.73;;
52440;SDS011;39611;46.062;8.950;2022-10-30T00:34:55;8.43;;;0.60;;
52440;SDS011;39611;46.062;8.950;2022-10-30T00:37:21;4.55;;;0.52;;
52440;SDS011;39611;46.062;8.950;2022-10-30T00:39:48;2.75;;;0.80;;
52440;SDS011;39611;46.062;8.950;2022-10-30T00:42:14;3.72;;;0.80;;
52440;SDS011;39611;46.062;8.950;2022-10-30T00:44:46;1.05;;;0.52;;
52440;SDS011;39611;46.062;8.950;2022-10-30T00:47:25;1.10;;;0.52;;
52440;SDS011;39611;46.062;8.950;2022-10-30T00:52:24;6.35;;;0.80;;
52440;SDS011;39611;46.062;8.950;2022-10-30T00:54:57;3.70;;;0.70;;
52440;SDS011;39611;46.062;8.950;2022-10-30T00:57:28;3.05;;;0.85;;
52440;SDS011;39611;46.062;8.950;2022-10-30T00:59:55;2.08;;;0.50;;
52440;SDS011;39611;46.062;8.950;2022-10-30T01:02:21;0.85;;;0.30;;
52440;SDS011;39611;46.062;8.950;2022-10-30T01:04:48;2.92;;;0.75;;
52440;SDS011;39611;46.062;8.950;2022-10-30T01:07:17;1.55;;;0.50;;
52440;SDS011;39611;46.062;8.950;2022-10-30T01:09:44;1.45;;;0.40;;
52440;SDS011;39611;46.062;8.950;2022-10-30T01:12:13;5.15;;;0.60;;
52440;SDS011;39611;46.062;8.950;2022-10-30T01:14:49;2.55;;;0.47;;
52440;SDS011;39611;46.062;8.950;2022-10-30T01:17:22;5.00;;;0.60;;
52440;SDS011;39611;46.062;8.950;2022-10-30T01:30:46;3.22;;;0.35;;
52440;SDS011;39611;46.062;8.950;2022-10-30T01:33:35;7.47;;;0.50;;
52440;SDS011;39611;46.062;8.950;2022-10-30T01:36:27;3.33;;;0.30;;
52440;SDS011;39611;46.062;8.950;2022-10-30T01:39:12;1.48;;;0.30;;
52440;SDS011;39611;46.062;8.950;2022-10-30T01:41:43;0.93;;;0.30;;
52440;SDS011;39611;46.062;8.950;2022-10-30T01:44:20;1.10;;;0.45;;
52440;SDS011;39611;46.062;8.950;2022-10-30T01:47:03;1.15;;;0.40;;
52440;SDS011;39611;46.062;8.950;2022-10-30T01:50:08;2.05;;;0.80;;
52440;SDS011;39611;46.062;8.950;2022-10-30T01:55:41;0.85;;;0.30;;
52440;SDS011;39611;46.062;8.950;2022-10-30T01:58:21;1.90;;;0.40;;
52440;SDS011;39611;46.062;8.950;2022-10-30T02:00:58;2.58;;;0.80;;
52440;SDS011;39611;46.062;8.950;2022-10-30T02:03:25;2.00;;;0.40;;
52440;SDS011;39611;46.062;8.950;2022-10-30T02:05:53;1.83;;;0.52;;
52440;SDS011;39611;46.062;8.950;2022-10-30T02:08:20;1.88;;;0.43;;
52440;SDS011;39611;46.062;8.950;2022-10-30T02:10:47;3.95;;;0.47;;
52440;SDS011;39611;46.062;8.950;2022-10-30T02:13:16;8.13;;;0.70;;
52440;SDS011;39611;46.062;8.950;2022-10-30T02:15:42;5.13;;;0.90;;
52440;SDS011;39611;46.062;8.950;2022-10-30T02:18:10;1.75;;;0.70;;
52440;SDS011;39611;46.062;8.950;2022-10-30T02:20:37;6.55;;;0.50;;
52440;SDS011;39611;46.062;8.950;2022-10-30T02:23:03;4.88;;;1.00;;
52440;SDS011;39611;46.062;8.950;2022-10-30T02:25:32;1.05;;;0.43;;
52440;SDS011;39611;46.062;8.950;2022-10-30T02:27:58;3.13;;;0.50;;
52440;SDS011;39611;46.062;8.950;2022-10-30T02:30:25;0.90;;;0.35;;
52440;SDS011;39611;46.062;8.950;2022-10-30T02:32:52;2.60;;;0.70;;
52440;SDS011;39611;46.062;8.950;2022-10-30T02:35:18;2.50;;;0.40;;
52440;SDS011;39611;46.062;8.950;2022-10-30T02:37:46;3.35;;;0.50;;
52440;SDS011;39611;46.062;8.950;2022-10-30T02:40:14;3.80;;;0.30;;
52440;SDS011;39611;46.062;8.950;2022-10-30T02:42:40;0.60;;;0.30;;
52440;SDS011;39611;46.062;8.950;2022-10-30T02:45:07;1.42;;;0.60;;
52440;SDS011;39611;46.062;8.950;2022-10-30T02:47:34;2.72;;;0.50;;
52440;SDS011;39611;46.062;8.950;2022-10-30T02:50:00;0.77;;;0.30;;
52440;SDS011;39611;46.062;8.950;2022-10-30T02:52:27;2.25;;;0.40;;
52440;SDS011;39611;46.062;8.950;2022-10-30T02:54:53;1.35;;;0.38;;
52440;SDS011;39611;46.062;8.950;2022-10-30T02:57:20;2.08;;;0.52;;
52440;SDS011;39611;46.062;8.950;2022-10-30T02:59:46;0.85;;;0.40;;
52440;SDS011;39611;46.062;8.950;2022-10-30T03:02:12;1.38;;;0.40;;
52440;SDS011;39611;46.062;8.950;2022-10-30T03:04:42;2.90;;;0.50;;
52440;SDS011;39611;46.062;8.950;2022-10-30T03:07:09;1.63;;;0.40;;
52440;SDS011;39611;46.062;8.950;2022-10-30T03:09:35;7.15;;;0.60;;
52440;SDS011;39611;46.062;8.950;2022-10-30T03:12:01;6.15;;;0.73;;
52440;SDS011;39611;46.062;8.950;2022-10-30T03:14:28;3.25;;;0.50;;
52440;SDS011;39611;46.062;8.950;2022-10-30T03:16:54;2.33;;;0.40;;
52440;SDS011;39611;46.062;8.950;2022-10-30T03:19:21;2.63;;;0.47;;
52440;SDS011;39611;46.062;8.950;2022-10-30T03:21:48;0.60;;;0.32;;
52440;SDS011;39611;46.062;8.950;2022-10-30T03:24:15;2.58;;;0.45;;
52440;SDS011;39611;46.062;8.950;2022-10-30T03:26:41;1.33;;;0.40;;
52440;SDS011;39611;46.062;8.950;2022-10-30T03:29:07;1.67;;;0.43;;
52440;SDS011;39611;46.062;8.950;2022-10-30T03:31:34;0.73;;;0.30;;
52440;SDS011;39611;46.062;8.950;2022-10-30T03:34:01;2.72;;;0.28;;
52440;SDS011;39611;46.062;8.950;2022-10-30T03:36:27;2.55;;;0.60;;
52440;SDS011;39611;46.062;8.950;2022-10-30T03:38:54;3.92;;;0.52;;
52440;SDS011;39611;46.062;8.950;2022-10-30T03:41:20;2.38;;;0.40;;
52440;SDS011;39611;46.062;8.950;2022-10-30T03:43:46;0.20;;;0.20;;
52440;SDS011;39611;46.062;8.950;2022-10-30T03:46:13;5.85;;;0.98;;
52440;SDS011;39611;46.062;8.950;2022-10-30T03:48:39;8.02;;;0.40;;
52440;SDS011;39611;46.062;8.950;2022-10-30T03:51:06;2.67;;;0.50;;
52440;SDS011;39611;46.062;8.950;2022-10-30T03:53:32;1.15;;;0.40;;
52440;SDS011;39611;46.062;8.950;2022-10-30T03:56:00;0.85;;;0.22;;
52440;SDS011;39611;46.062;8.950;2022-10-30T03:58:28;1.17;;;0.30;;
52440;SDS011;39611;46.062;8.950;2022-10-30T04:01:02;1.75;;;0.50;;
52440;SDS011;39611;46.062;8.950;2022-10-30T04:03:29;3.65;;;0.30;;
52440;SDS011;39611;46.062;8.950;2022-10-30T04:05:56;6.20;;;0.50;;
52440;SDS011;39611;46.062;8.950;2022-10-30T04:08:23;2.75;;;0.50;;
52440;SDS011;39611;46.062;8.950;2022-10-30T04:10:49;0.95;;;0.32;;
52440;SDS011;39611;46.062;8.950;2022-10-30T04:13:16;2.10;;;0.60;;
52440;SDS011;39611;46.062;8.950;2022-10-30T04:15:46;2.15;;;0.50;;
52440;SDS011;39611;46.062;8.950;2022-10-30T04:18:22;3.28;;;0.45;;
52440;SDS011;39611;46.062;8.950;2022-10-30T04:20:49;1.33;;;0.38;;
52440;SDS011;39611;46.062;8.950;2022-10-30T04:23:17;2.03;;;0.50;;
52440;SDS011;39611;46.062;8.950;2022-10-30T04:25:45;2.05;;;0.63;;
52440;SDS011;39611;46.062;8.950;2022-10-30T04:28:12;2.92;;;0.40;;
52440;SDS011;39611;46.062;8.950;2022-10-30T04:30:39;1.48;;;0.40;;
52440;SDS011;39611;46.062;8.950;2022-10-30T04:33:07;0.75;;;0.20;;
52440;SDS011;39611;46.062;8.950;2022-10-30T04:35:36;1.17;;;0.25;;
52440;SDS011;39611;46.062;8.950;2022-10-30T04:38:04;5.68;;;0.57;;
52440;SDS011;39611;46.062;8.950;2022-10-30T04:40:33;5.80;;;0.50;;
52440;SDS011;39611;46.062;8.950;2022-10-30T04:43:01;4.28;;;0.50;;
52440;SDS011;39611;46.062;8.950;2022-10-30T04:45:28;0.80;;;0.30;;
52440;SDS011;39611;46.062;8.950;2022-10-30T04:48:01;2.65;;;0.40;;
52440;SDS011;39611;46.062;8.950;2022-10-30T04:50:30;0.90;;;0.22;;
52440;SDS011;39611;46.062;8.950;2022-10-30T04:52:59;2.20;;;0.50;;
52440;SDS011;39611;46.062;8.950;2022-10-30T04:55:27;3.53;;;0.57;;
52440;SDS011;39611;46.062;8.950;2022-10-30T04:57:55;3.45;;;0.60;;
52440;SDS011;39611;46.062;8.950;2022-10-30T05:00:26;1.80;;;0.45;;
52440;SDS011;39611;46.062;8.950;2022-10-30T05:02:53;1.40;;;0.55;;
52440;SDS011;39611;46.062;8.950;2022-10-30T05:05:20;4.80;;;0.50;;
52440;SDS011;39611;46.062;8.950;2022-10-30T05:07:47;0.98;;;0.57;;
52440;SDS011;39611;46.062;8.950;2022-10-30T05:10:14;7.40;;;0.65;;
52440;SDS011;39611;46.062;8.950;2022-10-30T05:12:43;3.65;;;0.43;;
52440;SDS011;39611;46.062;8.950;2022-10-30T05:15:11;2.63;;;0.60;;
52440;SDS011;39611;46.062;8.950;2022-10-30T05:17:38;3.17;;;0.68;;
52440;SDS011;39611;46.062;8.950;2022-10-30T05:20:06;2.63;;;0.45;;
52440;SDS011;39611;46.062;8.950;2022-10-30T05:22:32;3.05;;;0.43;;
52440;SDS011;39611;46.062;8.950;2022-10-30T05:24:59;1.10;;;0.50;;
52440;SDS011;39611;46.062;8.950;2022-10-30T05:27:25;2.30;;;0.50;;
52440;SDS011;39611;46.062;8.950;2022-10-30T05:29:52;1.30;;;0.32;;
52440;SDS011;39611;46.062;8.950;2022-10-30T05:32:18;6.13;;;0.52;;
52440;SDS011;39611;46.062;8.950;2022-10-30T05:34:45;1.73;;;0.45;;
52440;SDS011;39611;46.062;8.950;2022-10-30T05:37:11;1.42;;;0.40;;
52440;SDS011;39611;46.062;8.950;2022-10-30T05:39:38;1.02;;;0.28;;
52440;SDS011;39611;46.062;8.950;2022-10-30T05:42:04;5.78;;;0.63;;
52440;SDS011;39611;46.062;8.950;2022-10-30T05:47:24;2.70;;;0.50;;
52440;SDS011;39611;46.062;8.950;2022-10-30T05:49:50;2.58;;;0.32;;
52440;SDS011;39611;46.062;8.950;2022-10-30T05:52:17;2.45;;;0.50;;
52440;SDS011;39611;46.062;8.950;2022-10-30T05:54:43;1.45;;;0.60;;
52440;SDS011;39611;46.062;8.950;2022-10-30T05:57:10;1.98;;;0.40;;
52440;SDS011;39611;46.062;8.950;2022-10-30T05:59:36;4.72;;;0.63;;
52440;SDS011;39611;46.062;8.950;2022-10-30T06:02:02;3.47;;;0.50;;
52440;SDS011;39611;46.062;8.950;2022-10-30T06:04:29;4.57;;;0.40;;
52440;SDS011;39611;46.062;8.950;2022-10-30T06:06:55;1.73;;;0.70;;
52440;SDS011;39611;46.062;8.950;2022-10-30T06:09:22;5.18;;;0.75;;
52440;SDS011;39611;46.062;8.950;2022-10-30T06:11:48;2.40;;;0.60;;
52440;SDS011;39611;46.062;8.950;2022-10-30T06:14:14;1.52;;;0.40;;
52440;SDS011;39611;46.062;8.950;2022-10-30T06:16:41;1.20;;;0.43;;
52440;SDS011;39611;46.062;8.950;2022-10-30T06:19:07;2.70;;;0.47;;
52440;SDS011;39611;46.062;8.950;2022-10-30T06:21:38;1.00;;;0.50;;
52440;SDS011;39611;46.062;8.950;2022-10-30T06:24:05;0.93;;;0.47;;
52440;SDS011;39611;46.062;8.950;2022-10-30T06:26:32;1.90;;;0.40;;
52440;SDS011;39611;46.062;8.950;2022-10-30T06:28:58;1.45;;;0.60;;
52440;SDS011;39611;46.062;8.950;2022-10-30T06:31:25;2.25;;;0.80;;
52440;SDS011;39611;46.062;8.950;2022-10-30T06:33:51;1.52;;;0.30;;
52440;SDS011;39611;46.062;8.950;2022-10-30T06:36:18;2.85;;;0.50;;
52440;SDS011;39611;46.062;8.950;2022-10-30T06:38:45;4.47;;;0.60;;
52440;SDS011;39611;46.062;8.950;2022-10-30T06:41:11;1.98;;;0.40;;
52440;SDS011;39611;46.062;8.950;2022-10-30T06:43:38;1.05;;;0.40;;
52440;SDS011;39611;46.062;8.950;2022-10-30T06:46:05;2.90;;;0.60;;
52440;SDS011;39611;46.062;8.950;2022-10-30T06:48:32;0.98;;;0.32;;
52440;SDS011;39611;46.062;8.950;2022-10-30T06:50:59;3.33;;;0.40;;
52440;SDS011;39611;46.062;8.950;2022-10-30T06:53:28;2.70;;;0.60;;
52440;SDS011;39611;46.062;8.950;2022-10-30T06:55:58;1.52;;;0.50;;
52440;SDS011;39611;46.062;8.950;2022-10-30T06:58:26;4.05;;;0.65;;
52440;SDS011;39611;46.062;8.950;2022-10-30T07:00:53;5.35;;;0.60;;
52440;SDS011;39611;46.062;8.950;2022-10-30T07:03:20;1.42;;;0.40;;
52440;SDS011;39611;46.062;8.950;2022-10-30T07:05:48;1.83;;;0.32;;
52440;SDS011;39611;46.062;8.950;2022-10-30T07:08:14;0.95;;;0.45;;
52440;SDS011;39611;46.062;8.950;2022-10-30T07:10:41;9.07;;;0.85;;
52440;SDS011;39611;46.062;8.950;2022-10-30T07:13:07;2.45;;;0.63;;
52440;SDS011;39611;46.062;8.950;2022-10-30T07:15:34;2.72;;;0.90;;
52440;SDS011;39611;46.062;8.950;2022-10-30T07:18:01;1.65;;;0.65;;
52440;SDS011;39611;46.062;8.950;2022-10-30T07:20:29;1.45;;;0.80;;
52440;SDS011;39611;46.062;8.950;2022-10-30T07:22:58;4.40;;;0.60;;
52440;SDS011;39611;46.062;8.950;2022-10-30T07:25:25;2.92;;;0.50;;
52440;SDS011;39611;46.062;8.950;2022-10-30T07:27:52;5.20;;;1.10;;
52440;SDS011;39611;46.062;8.950;2022-10-30T07:30:20;4.97;;;0.60;;
52440;SDS011;39611;46.062;8.950;2022-10-30T07:33:04;3.63;;;1.40;;
52440;SDS011;39611;46.062;8.950;2022-10-30T07:35:33;2.88;;;1.35;;
52440;SDS011;39611;46.062;8.950;2022-10-30T07:38:02;7.85;;;1.13;;
52440;SDS011;39611;46.062;8.950;2022-10-30T07:40:29;6.55;;;1.70;;
52440;SDS011;39611;46.062;8.950;2022-10-30T07:42:57;4.68;;;1.20;;
52440;SDS011;39611;46.062;8.950;2022-10-30T07:45:25;3.65;;;1.30;;
52440;SDS011;39611;46.062;8.950;2022-10-30T07:47:53;4.80;;;1.35;;
52440;SDS011;39611;46.062;8.950;2022-10-30T07:50:20;3.60;;;1.08;;
52440;SDS011;39611;46.062;8.950;2022-10-30T07:52:46;4.60;;;1.33;;
52440;SDS011;39611;46.062;8.950;2022-10-30T07:55:13;6.88;;;1.50;;
52440;SDS011;39611;46.062;8.950;2022-10-30T07:57:40;3.20;;;1.02;;
52440;SDS011;39611;46.062;8.950;2022-10-30T08:00:09;2.78;;;0.85;;
52440;SDS011;39611;46.062;8.950;2022-10-30T08:02:37;1.42;;;0.85;;
52440;SDS011;39611;46.062;8.950;2022-10-30T08:05:04;5.72;;;1.00;;
52440;SDS011;39611;46.062;8.950;2022-10-30T08:07:32;1.42;;;0.70;;
52440;SDS011;39611;46.062;8.950;2022-10-30T08:10:00;4.00;;;0.80;;
52440;SDS011;39611;46.062;8.950;2022-10-30T08:12:27;4.80;;;0.80;;
52440;SDS011;39611;46.062;8.950;2022-10-30T08:14:53;3.17;;;0.73;;
52440;SDS011;39611;46.062;8.950;2022-10-30T08:17:20;3.10;;;0.70;;
52440;SDS011;39611;46.062;8.950;2022-10-30T08:19:47;1.48;;;0.60;;
52440;SDS011;39611;46.062;8.950;2022-10-30T08:22:13;3.53;;;0.70;;
52440;SDS011;39611;46.062;8.950;2022-10-30T08:24:40;3.50;;;0.80;;
52440;SDS011;39611;46.062;8.950;2022-10-30T08:27:07;1.48;;;0.52;;
52440;SDS011;39611;46.062;8.950;2022-10-30T08:29:34;3.13;;;0.85;;
52440;SDS011;39611;46.062;8.950;2022-10-30T08:32:01;4.82;;;0.63;;
52440;SDS011;39611;46.062;8.950;2022-10-30T08:34:27;1.42;;;0.40;;
52440;SDS011;39611;46.062;8.950;2022-10-30T08:36:56;2.00;;;0.50;;
52440;SDS011;39611;46.062;8.950;2022-10-30T08:39:24;4.25;;;0.80;;
52440;SDS011;39611;46.062;8.950;2022-10-30T08:41:54;2.38;;;0.80;;
52440;SDS011;39611;46.062;8.950;2022-10-30T08:44:22;5.53;;;0.90;;
52440;SDS011;39611;46.062;8.950;2022-10-30T08:46:49;3.33;;;0.40;;
52440;SDS011;39611;46.062;8.950;2022-10-30T08:49:15;3.40;;;0.32;;
52440;SDS011;39611;46.062;8.950;2022-10-30T08:51:42;5.18;;;0.40;;
52440;SDS011;39611;46.062;8.950;2022-10-30T08:54:09;2.25;;;0.40;;
52440;SDS011;39611;46.062;8.950;2022-10-30T08:56:35;2.28;;;0.45;;
52440;SDS011;39611;46.062;8.950;2022-10-30T08:59:02;6.10;;;0.47;;
52440;SDS011;39611;46.062;8.950;2022-10-30T09:01:28;2.13;;;0.50;;
52440;SDS011;39611;46.062;8.950;2022-10-30T09:03:55;1.10;;;0.43;;
52440;SDS011;39611;46.062;8.950;2022-10-30T09:06:21;1.70;;;0.50;;
52440;SDS011;39611;46.062;8.950;2022-10-30T09:08:48;1.95;;;0.70;;
52440;SDS011;39611;46.062;8.950;2022-10-30T09:11:14;4.95;;;0.77;;
52440;SDS011;39611;46.062;8.950;2022-10-30T09:13:42;2.00;;;0.80;;
52440;SDS011;39611;46.062;8.950;2022-10-30T09:16:08;2.85;;;0.52;;
52440;SDS011;39611;46.062;8.950;2022-10-30T09:18:36;2.85;;;0.90;;
52440;SDS011;39611;46.062;8.950;2022-10-30T09:21:02;2.40;;;0.75;;
52440;SDS011;39611;46.062;8.950;2022-10-30T09:23:33;3.50;;;1.13;;
52440;SDS011;39611;46.062;8.950;2022-10-30T09:26:00;5.85;;;0.63;;
52440;SDS011;39611;46.062;8.950;2022-10-30T09:28:27;1.73;;;0.55;;
52440;SDS011;39611;46.062;8.950;2022-10-30T09:30:54;3.47;;;0.50;;
52440;SDS011;39611;46.062;8.950;2022-10-30T09:33:23;1.05;;;0.45;;
52440;SDS011;39611;46.062;8.950;2022-10-30T09:35:50;1.20;;;0.55;;
52440;SDS011;39611;46.062;8.950;2022-10-30T09:38:17;1.25;;;0.47;;
52440;SDS011;39611;46.062;8.950;2022-10-30T09:43:38;1.40;;;0.50;;
52440;SDS011;39611;46.062;8.950;2022-10-30T09:49:07;1.95;;;0.50;;
52440;SDS011;39611;46.062;8.950;2022-10-30T09:54:56;1.52;;;0.50;;
52440;SDS011;39611;46.062;8.950;2022-10-30T10:05:50;2.88;;;0.22;;
52440;SDS011;39611;46.062;8.950;2022-10-30T10:08:22;3.80;;;0.98;;
52440;SDS011;39611;46.062;8.950;2022-10-30T10:10:58;3.08;;;0.63;;
52440;SDS011;39611;46.062;8.950;2022-10-30T10:13:32;3.85;;;0.70;;
52440;SDS011;39611;46.062;8.950;2022-10-30T10:18:44;1.65;;;0.40;;
52440;SDS011;39611;46.062;8.950;2022-10-30T10:21:25;2.35;;;0.70;;
52440;SDS011;39611;46.062;8.950;2022-10-30T10:23:53;3.38;;;0.60;;
52440;SDS011;39611;46.062;8.950;2022-10-30T10:29:12;1.08;;;0.40;;
52440;SDS011;39611;46.062;8.950;2022-10-30T10:37:44;1.55;;;0.50;;
52440;SDS011;39611;46.062;8.950;2022-10-30T10:46:25;1.27;;;0.40;;
52440;SDS011;39611;46.062;8.950;2022-10-30T10:49:00;1.17;;;0.50;;
52440;SDS011;39611;46.062;8.950;2022-10-30T10:51:38;2.25;;;0.35;;
52440;SDS011;39611;46.062;8.950;2022-10-30T10:54:13;1.65;;;0.45;;
52440;SDS011;39611;46.062;8.950;2022-10-30T10:56:45;1.60;;;0.40;;
52440;SDS011;39611;46.062;8.950;2022-10-30T10:59:16;1.55;;;0.65;;
52440;SDS011;39611;46.062;8.950;2022-10-30T11:04:42;2.22;;;0.60;;
52440;SDS011;39611;46.062;8.950;2022-10-30T11:10:11;2.08;;;0.90;;
52440;SDS011;39611;46.062;8.950;2022-10-30T11:12:39;2.97;;;1.00;;
52440;SDS011;39611;46.062;8.950;2022-10-30T11:15:28;2.10;;;0.60;;
52440;SDS011;39611;46.062;8.950;2022-10-30T11:18:03;2.33;;;1.10;;
52440;SDS011;39611;46.062;8.950;2022-10-30T11:20:39;3.70;;;0.68;;
52440;SDS011;39611;46.062;8.950;2022-10-30T11:26:08;3.10;;;0.60;;
52440;SDS011;39611;46.062;8.950;2022-10-30T11:28:59;4.70;;;1.10;;
52440;SDS011;39611;46.062;8.950;2022-10-30T11:31:32;3.05;;;0.70;;
52440;SDS011;39611;46.062;8.950;2022-10-30T11:34:12;3.05;;;0.60;;
52440;SDS011;39611;46.062;8.950;2022-10-30T11:36:40;2.22;;;0.50;;
52440;SDS011;39611;46.062;8.950;2022-10-30T11:39:17;2.72;;;0.80;;
52440;SDS011;39611;46.062;8.950;2022-10-30T11:41:46;4.70;;;0.60;;
52440;SDS011;39611;46.062;8.950;2022-10-30T11:44:22;3.17;;;0.60;;
52440;SDS011;39611;46.062;8.950;2022-10-30T11:46:50;1.42;;;0.50;;
52440;SDS011;39611;46.062;8.950;2022-10-30T11:49:26;4.72;;;0.47;;
52440;SDS011;39611;46.062;8.950;2022-10-30T11:51:53;4.05;;;0.55;;
52440;SDS011;39611;46.062;8.950;2022-10-30T11:54:20;4.78;;;0.57;;
52440;SDS011;39611;46.062;8.950;2022-10-30T11:56:48;2.40;;;0.30;;
52440;SDS011;39611;46.062;8.950;2022-10-30T11:59:19;2.00;;;0.60;;
52440;SDS011;39611;46.062;8.950;2022-10-30T12:02:02;3.70;;;0.70;;
52440;SDS011;39611;46.062;8.950;2022-10-30T12:04:44;1.02;;;0.40;;
52440;SDS011;39611;46.062;8.950;2022-10-30T12:07:24;0.88;;;0.50;;
52440;SDS011;39611;46.062;8.950;2022-10-30T12:09:57;5.45;;;1.40;;
52440;SDS011;39611;46.062;8.950;2022-10-30T12:17:41;2.65;;;0.50;;
52440;SDS011;39611;46.062;8.950;2022-10-30T12:20:19;1.90;;;0.43;;
52440;SDS011;39611;46.062;8.950;2022-10-30T12:22:45;1.02;;;0.38;;
52440;SDS011;39611;46.062;8.950;2022-10-30T12:25:28;1.45;;;1.00;;
52440;SDS011;39611;46.062;8.950;2022-10-30T12:27:59;2.63;;;0.32;;
52440;SDS011;39611;46.062;8.950;2022-10-30T12:30:36;1.23;;;0.40;;
52440;SDS011;39611;46.062;8.950;2022-10-30T12:33:16;1.15;;;0.47;;
52440;SDS011;39611;46.062;8.950;2022-10-30T12:35:56;2.63;;;0.77;;
52440;SDS011;39611;46.062;8.950;2022-10-30T12:43:38;4.15;;;0.88;;
52440;SDS011;39611;46.062;8.950;2022-10-30T12:54:51;2.00;;;0.43;;
52440;SDS011;39611;46.062;8.950;2022-10-30T12:57:27;5.88;;;0.60;;
52440;SDS011;39611;46.062;8.950;2022-10-30T13:00:11;3.22;;;0.52;;
52440;SDS011;39611;46.062;8.950;2022-10-30T13:08:00;2.25;;;0.55;;
52440;SDS011;39611;46.062;8.950;2022-10-30T13:13:42;1.45;;;0.45;;
52440;SDS011;39611;46.062;8.950;2022-10-30T13:16:15;1.88;;;0.30;;
52440;SDS011;39611;46.062;8.950;2022-10-30T13:18:51;3.08;;;0.60;;
52440;SDS011;39611;46.062;8.950;2022-10-30T13:27:09;2.25;;;0.70;;
52440;SDS011;39611;46.062;8.950;2022-10-30T13:30:01;1.40;;;0.40;;
52440;SDS011;39611;46.062;8.950;2022-10-30T13:43:38;2.30;;;0.70;;
52440;SDS011;39611;46.062;8.950;2022-10-30T13:54:12;5.45;;;0.93;;
52440;SDS011;39611;46.062;8.950;2022-10-30T13:56:44;2.42;;;0.90;;
52440;SDS011;39611;46.062;8.950;2022-10-30T14:02:16;2.58;;;0.68;;
52440;SDS011;39611;46.062;8.950;2022-10-30T14:04:50;1.67;;;0.80;;
52440;SDS011;39611;46.062;8.950;2022-10-30T14:07:26;2.88;;;0.63;;
52440;SDS011;39611;46.062;8.950;2022-10-30T14:10:09;5.57;;;1.48;;
52440;SDS011;39611;46.062;8.950;2022-10-30T14:20:41;1.73;;;0.70;;
52440;SDS011;39611;46.062;8.950;2022-10-30T14:23:21;2.70;;;1.05;;
52440;SDS011;39611;46.062;8.950;2022-10-30T14:26:10;2.15;;;0.55;;
52440;SDS011;39611;46.062;8.950;2022-10-30T14:28:42;1.42;;;0.50;;
52440;SDS011;39611;46.062;8.950;2022-10-30T14:52:35;3.75;;;0.73;;
52440;SDS011;39611;46.062;8.950;2022-10-30T14:55:20;3.42;;;0.88;;
52440;SDS011;39611;46.062;8.950;2022-10-30T14:57:52;3.58;;;0.73;;
52440;SDS011;39611;46.062;8.950;2022-10-30T15:00:40;3.13;;;0.85;;
52440;SDS011;39611;46.062;8.950;2022-10-30T15:08:52;1.08;;;0.50;;
52440;SDS011;39611;46.062;8.950;2022-10-30T15:14:11;3.13;;;0.93;;
52440;SDS011;39611;46.062;8.950;2022-10-30T15:16:57;5.13;;;1.10;;
52440;SDS011;39611;46.062;8.950;2022-10-30T15:19:24;1.42;;;0.60;;
52440;SDS011;39611;46.062;8.950;2022-10-30T15:21:51;3.28;;;0.77;;
52440;SDS011;39611;46.062;8.950;2022-10-30T15:24:20;4.53;;;0.70;;
52440;SDS011;39611;46.062;8.950;2022-10-30T15:26:57;3.97;;;1.00;;
52440;SDS011;39611;46.062;8.950;2022-10-30T15:29:26;3.10;;;1.17;;
52440;SDS011;39611;46.062;8.950;2022-10-30T15:34:28;3.03;;;1.00;;
52440;SDS011;39611;46.062;8.950;2022-10-30T15:36:56;1.55;;;0.70;;
52440;SDS011;39611;46.062;8.950;2022-10-30T15:39:23;7.22;;;0.98;;
52440;SDS011;39611;46.062;8.950;2022-10-30T15:41:50;4.22;;;0.90;;
52440;SDS011;39611;46.062;8.950;2022-10-30T15:44:25;3.80;;;1.30;;
52440;SDS011;39611;46.062;8.950;2022-10-30T15:46:55;4.32;;;1.05;;
52440;SDS011;39611;46.062;8.950;2022-10-30T15:49:28;3.83;;;1.48;;
52440;SDS011;39611;46.062;8.950;2022-10-30T15:51:57;3.72;;;1.13;;
52440;SDS011;39611;46.062;8.950;2022-10-30T15:54:25;2.53;;;1.05;;
52440;SDS011;39611;46.062;8.950;2022-10-30T15:56:57;6.60;;;0.93;;
52440;SDS011;39611;46.062;8.950;2022-10-30T15:59:48;3.65;;;0.55;;
52440;SDS011;39611;46.062;8.950;2022-10-30T16:02:19;2.83;;;0.70;;
52440;SDS011;39611;46.062;8.950;2022-10-30T16:04:48;4.90;;;1.02;;
52440;SDS011;39611;46.062;8.950;2022-10-30T16:07:19;3.30;;;1.05;;
52440;SDS011;39611;46.062;8.950;2022-10-30T16:09:55;3.38;;;0.50;;
52440;SDS011;39611;46.062;8.950;2022-10-30T16:12:28;3.78;;;0.55;;
52440;SDS011;39611;46.062;8.950;2022-10-30T16:14:56;1.30;;;0.60;;
52440;SDS011;39611;46.062;8.950;2022-10-30T16:17:25;1.40;;;0.52;;
52440;SDS011;39611;46.062;8.950;2022-10-30T16:19:53;4.68;;;0.93;;
52440;SDS011;39611;46.062;8.950;2022-10-30T16:22:27;2.08;;;0.68;;
52440;SDS011;39611;46.062;8.950;2022-10-30T16:24:58;2.45;;;0.80;;
52440;SDS011;39611;46.062;8.950;2022-10-30T16:27:25;2.67;;;0.50;;
52440;SDS011;39611;46.062;8.950;2022-10-30T16:29:53;4.72;;;1.40;;
52440;SDS011;39611;46.062;8.950;2022-10-30T16:32:23;6.60;;;2.28;;
52440;SDS011;39611;46.062;8.950;2022-10-30T16:34:55;7.05;;;1.40;;
52440;SDS011;39611;46.062;8.950;2022-10-30T16:37:24;11.00;;;3.72;;
52440;SDS011;39611;46.062;8.950;2022-10-30T16:39:57;21.35;;;5.53;;
52440;SDS011;39611;46.062;8.950;2022-10-30T16:42:30;10.23;;;2.20;;
52440;SDS011;39611;46.062;8.950;2022-10-30T16:45:10;6.70;;;1.63;;
52440;SDS011;39611;46.062;8.950;2022-10-30T16:47:46;2.17;;;0.60;;
52440;SDS011;39611;46.062;8.950;2022-10-30T16:50:18;3.75;;;0.95;;
52440;SDS011;39611;46.062;8.950;2022-10-30T16:52:45;6.50;;;2.55;;
52440;SDS011;39611;46.062;8.950;2022-10-30T16:55:17;4.60;;;1.48;;
52440;SDS011;39611;46.062;8.950;2022-10-30T16:57:47;4.63;;;1.15;;
52440;SDS011;39611;46.062;8.950;2022-10-30T17:00:22;3.17;;;1.05;;
52440;SDS011;39611;46.062;8.950;2022-10-30T17:02:53;6.80;;;1.03;;
52440;SDS011;39611;46.062;8.950;2022-10-30T17:07:59;2.88;;;0.95;;
52440;SDS011;39611;46.062;8.950;2022-10-30T17:10:36;2.78;;;0.90;;
52440;SDS011;39611;46.062;8.950;2022-10-30T17:16:23;3.63;;;0.93;;
52440;SDS011;39611;46.062;8.950;2022-10-30T17:18:58;8.13;;;3.58;;
52440;SDS011;39611;46.062;8.950;2022-10-30T17:23:55;9.23;;;3.08;;
52440;SDS011;39611;46.062;8.950;2022-10-30T17:26:24;5.43;;;2.10;;
52440;SDS011;39611;46.062;8.950;2022-10-30T17:28:52;5.80;;;2.00;;
52440;SDS011;39611;46.062;8.950;2022-10-30T17:37:02;4.78;;;2.45;;
52440;SDS011;39611;46.062;8.950;2022-10-30T17:39:28;9.55;;;3.40;;
52440;SDS011;39611;46.062;8.950;2022-10-30T17:41:56;13.48;;;3.72;;
52440;SDS011;39611;46.062;8.950;2022-10-30T17:44:23;8.93;;;3.58;;
52440;SDS011;39611;46.062;8.950;2022-10-30T17:46:50;15.15;;;4.63;;
52440;SDS011;39611;46.062;8.950;2022-10-30T17:49:22;6.60;;;3.30;;
52440;SDS011;39611;46.062;8.950;2022-10-30T17:51:51;9.30;;;2.83;;
52440;SDS011;39611;46.062;8.950;2022-10-30T17:54:18;5.20;;;1.92;;
52440;SDS011;39611;46.062;8.950;2022-10-30T17:56:45;7.25;;;2.47;;